Time;durP1;ratioP1;P1;durP2;ratioP2;P2;SDS_P1;SDS_P2;PMS_P1;PMS_P2;Temp;Humidity;BMP_temperature;BMP_pressure;BME280_temperature;BME280_humidity;BME280_pressure;Samples;Min_cycle;Max_cycle;Signal;HPM_P1;HPM_P2
2020/12/11 00:02:25;;;;;;;18.13;12.55;;;2.30;99.90;;;;;;5072925;28;20029;-78
2020/12/11 00:04:51;;;;;;;16.88;12.52;;;2.30;99.90;;;;;;5074203;28;20067;-78
2020/12/11 00:07:17;;;;;;;15.70;12.07;;;2.10;99.90;;;;;;5073900;28;20036;-77
2020/12/11 00:09:42;;;;;;;14.90;11.52;;;2.10;99.90;;;;;;5074434;28;20020;-78
2020/12/11 00:12:08;;;;;;;14.75;10.80;;;2.10;99.90;;;;;;5072865;28;20107;-78
2020/12/11 00:14:34;;;;;;;16.60;11.52;;;1.90;99.90;;;;;;5074308;28;20028;-78
2020/12/11 00:16:59;;;;;;;16.02;11.73;;;2.00;99.90;;;;;;5074314;28;20052;-78
2020/12/11 00:19:25;;;;;;;13.25;10.38;;;2.10;99.90;;;;;;5073953;28;20384;-77
2020/12/11 00:21:51;;;;;;;14.88;10.70;;;2.00;99.90;;;;;;5074121;28;20025;-78
2020/12/11 00:24:17;;;;;;;17.45;11.95;;;1.90;99.90;;;;;;5072486;28;20052;-78
2020/12/11 00:26:45;;;;;;;15.35;11.35;;;2.00;99.90;;;;;;5073945;28;20380;-78
2020/12/11 00:29:10;;;;;;;15.30;11.63;;;2.00;99.90;;;;;;5073851;28;20483;-78
2020/12/11 00:31:38;;;;;;;15.93;11.52;;;1.80;99.90;;;;;;5072545;28;20058;-77
2020/12/11 00:34:04;;;;;;;15.70;11.68;;;1.80;99.90;;;;;;5072537;28;20030;-79
2020/12/11 00:36:29;;;;;;;15.77;11.88;;;2.00;99.90;;;;;;5074304;28;20031;-78
2020/12/11 00:38:55;;;;;;;15.82;11.73;;;2.00;99.90;;;;;;5072434;28;20392;-78
2020/12/11 00:41:21;;;;;;;15.70;12.60;;;2.00;99.90;;;;;;5072333;28;20035;-77
2020/12/11 00:43:46;;;;;;;16.15;12.00;;;2.10;99.90;;;;;;5073659;28;20021;-78
2020/12/11 00:46:13;;;;;;;17.20;12.55;;;2.10;99.90;;;;;;5073589;28;20060;-78
2020/12/11 00:48:39;;;;;;;17.27;13.55;;;1.90;99.90;;;;;;5073924;28;20492;-78
2020/12/11 00:51:05;;;;;;;19.70;14.48;;;1.90;99.90;;;;;;5072325;28;20024;-78
2020/12/11 00:53:31;;;;;;;17.27;12.93;;;1.80;99.90;;;;;;5072312;28;20016;-78
2020/12/11 00:55:56;;;;;;;18.30;13.65;;;2.00;99.90;;;;;;5072286;28;20494;-78
2020/12/11 00:58:22;;;;;;;18.98;13.27;;;2.00;99.90;;;;;;5073746;28;20021;-78
2020/12/11 01:00:48;;;;;;;18.70;13.45;;;2.10;99.90;;;;;;5074075;28;20029;-78
2020/12/11 01:03:14;;;;;;;16.20;12.15;;;2.10;99.90;;;;;;5072090;28;20033;-78
2020/12/11 01:05:39;;;;;;;18.63;14.50;;;1.90;99.90;;;;;;5072148;28;20021;-78
2020/12/11 01:08:06;;;;;;;18.27;13.55;;;1.80;99.90;;;;;;5072136;28;20028;-78
2020/12/11 01:10:32;;;;;;;20.42;14.70;;;1.90;99.90;;;;;;5089006;28;20024;-78
2020/12/11 01:12:58;;;;;;;17.60;13.40;;;1.90;99.90;;;;;;5072113;28;20081;-78
2020/12/11 01:15:24;;;;;;;19.50;14.00;;;1.90;99.90;;;;;;5073358;28;20111;-78
2020/12/11 01:17:50;;;;;;;20.27;14.95;;;2.00;99.90;;;;;;5072041;28;20043;-78
2020/12/11 01:20:16;;;;;;;19.67;15.02;;;1.90;99.90;;;;;;5092802;28;20038;-78
2020/12/11 01:22:41;;;;;;;20.67;14.27;;;1.90;99.90;;;;;;5077124;28;20029;-78
2020/12/11 01:25:08;;;;;;;21.35;15.95;;;1.90;99.90;;;;;;5076072;28;20025;-78
2020/12/11 01:27:33;;;;;;;19.52;15.18;;;1.90;99.90;;;;;;5092974;28;20472;-79
2020/12/11 01:29:59;;;;;;;21.33;15.63;;;1.80;99.90;;;;;;5077221;28;20099;-78
2020/12/11 01:32:25;;;;;;;21.75;15.38;;;1.70;99.90;;;;;;5077422;28;20021;-77
2020/12/11 01:34:50;;;;;;;21.42;14.68;;;1.60;99.90;;;;;;5075898;28;20033;-78
2020/12/11 01:37:16;;;;;;;22.75;16.90;;;1.80;99.90;;;;;;5077404;28;20024;-78
2020/12/11 01:39:42;;;;;;;20.17;14.68;;;1.80;99.90;;;;;;5077080;28;20025;-78
2020/12/11 01:42:12;;;;;;;22.58;15.68;;;1.90;99.90;;;;;;5076941;28;20025;-78
2020/12/11 01:44:50;;;;;;;20.70;15.07;;;1.80;99.90;;;;;;5076981;28;20063;-78
2020/12/11 01:47:19;;;;;;;21.38;14.57;;;1.80;99.90;;;;;;5092479;28;20021;-78
2020/12/11 01:49:46;;;;;;;22.80;16.25;;;1.70;99.90;;;;;;5092464;28;20070;-77
2020/12/11 01:52:14;;;;;;;21.80;14.93;;;1.80;99.90;;;;;;5076826;28;20040;-78
2020/12/11 01:54:40;;;;;;;21.35;15.10;;;1.80;99.90;;;;;;5076728;28;20021;-78
2020/12/11 01:57:07;;;;;;;19.80;15.05;;;2.00;99.90;;;;;;5075409;28;20020;-78
2020/12/11 01:59:38;;;;;;;23.88;16.65;;;1.90;99.90;;;;;;5076670;28;20024;-78
2020/12/11 02:02:05;;;;;;;26.30;17.92;;;1.80;99.90;;;;;;5076624;28;20031;-78
2020/12/11 02:04:35;;;;;;;25.65;18.50;;;1.40;99.90;;;;;;5076905;28;20032;-78
2020/12/11 02:07:01;;;;;;;27.75;18.23;;;1.40;99.90;;;;;;5076540;28;20040;-78
2020/12/11 02:09:27;;;;;;;24.35;18.08;;;1.50;99.90;;;;;;5075248;28;20020;-78
2020/12/11 02:11:53;;;;;;;23.83;17.58;;;1.40;99.90;;;;;;5075157;28;20029;-79
2020/12/11 02:14:19;;;;;;;23.83;16.42;;;1.50;99.90;;;;;;5076426;28;20036;-78
2020/12/11 02:16:45;;;;;;;28.50;20.55;;;1.40;99.90;;;;;;5075103;28;20031;-78
2020/12/11 02:19:12;;;;;;;26.92;19.10;;;1.10;99.90;;;;;;5076589;28;20028;-79
2020/12/11 02:21:38;;;;;;;27.20;19.73;;;1.20;99.90;;;;;;5074933;28;20032;-78
2020/12/11 02:24:03;;;;;;;26.95;18.00;;;1.10;99.90;;;;;;5075426;28;20052;-79
2020/12/11 02:26:29;;;;;;;31.05;20.05;;;1.20;99.90;;;;;;5075041;28;20388;-78
2020/12/11 02:28:55;;;;;;;25.55;17.00;;;1.00;99.90;;;;;;5075263;28;20012;-78
2020/12/11 02:31:21;;;;;;;28.63;19.00;;;1.20;99.90;;;;;;5073099;28;20075;-78
2020/12/11 02:33:46;;;;;;;31.85;20.85;;;1.00;99.90;;;;;;5075199;28;20124;-78
2020/12/11 02:36:12;;;;;;;24.40;17.45;;;1.10;99.90;;;;;;5075163;28;20372;-77
2020/12/11 02:38:38;;;;;;;28.13;20.77;;;1.10;99.90;;;;;;5073577;28;20066;-78
2020/12/11 02:41:04;;;;;;;30.58;20.23;;;0.90;99.90;;;;;;5074985;28;20451;-78
2020/12/11 02:43:37;;;;;;;26.88;18.13;;;0.80;99.90;;;;;;5074792;28;20380;-78
2020/12/11 02:46:04;;;;;;;26.80;18.50;;;1.00;99.90;;;;;;5075128;28;20066;-79
2020/12/11 02:48:31;;;;;;;23.58;17.15;;;1.30;99.90;;;;;;5074715;28;20036;-78
2020/12/11 02:50:58;;;;;;;26.02;18.35;;;1.40;99.90;;;;;;5074625;28;20047;-78
2020/12/11 02:53:24;;;;;;;29.88;20.52;;;1.40;99.90;;;;;;5090201;28;20094;-78
2020/12/11 02:55:50;;;;;;;24.77;17.27;;;1.20;99.90;;;;;;5074627;28;20028;-78
2020/12/11 02:58:15;;;;;;;25.60;17.73;;;1.30;99.90;;;;;;5074777;28;20542;-78
2020/12/11 03:00:41;;;;;;;22.92;17.17;;;1.40;99.90;;;;;;5074477;28;20047;-78
2020/12/11 03:03:07;;;;;;;27.13;18.05;;;1.40;99.90;;;;;;5074384;28;20039;-78
2020/12/11 03:05:32;;;;;;;28.45;19.08;;;1.30;99.90;;;;;;5074701;28;20092;-78
2020/12/11 03:07:58;;;;;;;27.55;19.15;;;1.20;99.90;;;;;;5073117;28;20024;-78
2020/12/11 03:10:24;;;;;;;30.90;20.08;;;1.10;99.90;;;;;;5074342;28;20021;-78
2020/12/11 03:12:50;;;;;;;25.35;18.05;;;1.20;99.90;;;;;;5073108;28;20392;-78
2020/12/11 03:15:15;;;;;;;26.50;18.42;;;1.30;99.90;;;;;;5074601;28;20476;-78
2020/12/11 03:17:41;;;;;;;31.05;20.20;;;1.40;99.90;;;;;;5074400;28;20024;-78
2020/12/11 03:20:07;;;;;;;29.00;19.90;;;1.30;99.90;;;;;;5073028;28;20025;-78
2020/12/11 03:22:33;;;;;;;27.25;18.30;;;1.40;99.90;;;;;;5049333;28;665375;-80
2020/12/11 03:24:58;;;;;;;26.42;17.38;;;1.40;99.90;;;;;;5074915;28;20021;-79
2020/12/11 03:27:24;;;;;;;31.02;20.05;;;1.30;99.90;;;;;;5090706;28;20537;-79
2020/12/11 03:29:49;;;;;;;31.80;19.92;;;1.30;99.90;;;;;;5073890;28;20020;-78
2020/12/11 03:32:15;;;;;;;29.42;19.23;;;1.20;99.90;;;;;;5073754;28;20056;-78
2020/12/11 03:34:41;;;;;;;27.52;18.60;;;1.00;99.90;;;;;;5073634;28;20024;-78
2020/12/11 03:37:06;;;;;;;29.35;19.88;;;1.00;99.90;;;;;;5075253;28;20025;-81
2020/12/11 03:39:32;;;;;;;28.88;19.63;;;1.10;99.90;;;;;;5073615;28;20036;-79
2020/12/11 03:41:58;;;;;;;32.38;19.55;;;0.90;99.90;;;;;;5073861;28;20024;-78
2020/12/11 03:44:23;;;;;;;30.35;19.42;;;0.90;99.90;;;;;;5075323;28;20112;-79
2020/12/11 03:46:49;;;;;;;31.33;20.27;;;1.00;99.90;;;;;;5074785;28;20468;-79
2020/12/11 03:49:15;;;;;;;35.63;21.25;;;0.80;99.90;;;;;;5073417;28;20372;-79
2020/12/11 03:51:40;;;;;;;30.38;19.50;;;0.80;99.90;;;;;;5073295;28;20028;-79
2020/12/11 03:54:06;;;;;;;31.02;19.25;;;0.90;99.90;;;;;;5073294;28;20028;-79
2020/12/11 03:56:31;;;;;;;33.03;20.10;;;1.10;99.90;;;;;;5073396;28;20028;-80
2020/12/11 03:58:57;;;;;;;31.33;20.75;;;1.20;99.90;;;;;;5073207;28;20035;-80
2020/12/11 04:01:23;;;;;;;31.67;20.35;;;1.40;99.90;;;;;;5073131;28;20028;-79
2020/12/11 04:03:49;;;;;;;32.38;19.40;;;1.10;99.90;;;;;;5074868;28;20456;-80
2020/12/11 04:06:16;;;;;;;27.00;17.33;;;1.10;99.90;;;;;;5074302;28;20039;-79
2020/12/11 04:08:43;;;;;;;33.33;19.83;;;1.10;99.90;;;;;;5090165;28;20017;-80
2020/12/11 04:11:13;;;;;;;29.55;18.65;;;1.20;99.90;;;;;;5089988;28;20024;-81
2020/12/11 04:13:40;;;;;;;31.20;18.85;;;1.10;99.90;;;;;;5090094;28;20122;-80
2020/12/11 04:16:06;;;;;;;30.20;18.45;;;1.10;99.90;;;;;;5073015;28;20468;-80
2020/12/11 04:18:32;;;;;;;27.60;17.60;;;1.10;99.90;;;;;;5074096;28;20032;-80
2020/12/11 04:20:58;;;;;;;31.27;18.70;;;1.00;99.90;;;;;;5072834;28;20020;-80
2020/12/11 04:23:24;;;;;;;30.08;18.95;;;1.10;99.90;;;;;;5072535;28;20506;-80
2020/12/11 04:25:50;;;;;;;27.17;18.17;;;1.10;99.90;;;;;;5073993;28;20426;-80
2020/12/11 04:28:16;;;;;;;29.73;18.33;;;1.10;99.90;;;;;;5072656;28;20016;-80
2020/12/11 04:30:42;;;;;;;29.52;18.73;;;1.20;99.90;;;;;;5072684;28;20020;-80
2020/12/11 04:33:07;;;;;;;28.50;17.98;;;1.30;99.90;;;;;;5072940;28;20029;-80
2020/12/11 04:35:34;;;;;;;28.80;18.60;;;1.20;99.90;;;;;;5073842;28;20024;-80
2020/12/11 04:38:01;;;;;;;29.25;18.27;;;1.10;99.90;;;;;;5074046;28;20020;-80
2020/12/11 04:40:27;;;;;;;29.17;19.13;;;1.00;99.90;;;;;;5072468;28;20027;-80
2020/12/11 04:42:54;;;;;;;27.88;17.75;;;0.90;99.90;;;;;;5074048;28;20020;-80
2020/12/11 04:45:22;;;;;;;26.13;17.05;;;0.90;99.90;;;;;;5073750;28;20021;-80
2020/12/11 04:47:49;;;;;;;29.30;18.40;;;1.00;99.90;;;;;;5073779;28;20067;-80
2020/12/11 04:50:17;;;;;;;30.17;18.45;;;1.00;99.90;;;;;;5089611;28;20468;-80
2020/12/11 04:52:45;;;;;;;25.98;17.77;;;0.80;99.90;;;;;;5089293;28;20468;-80
2020/12/11 04:55:17;;;;;;;40.10;21.25;;;0.90;99.90;;;;;;5073649;28;20020;-80
2020/12/11 04:57:51;;;;;;;27.20;17.70;;;1.00;99.90;;;;;;5089313;28;20028;-80
2020/12/11 05:00:18;;;;;;;23.75;15.98;;;0.90;99.90;;;;;;5072426;28;20384;-80
2020/12/11 05:02:45;;;;;;;29.30;18.50;;;0.90;99.90;;;;;;5089128;28;20028;-81
2020/12/11 05:05:12;;;;;;;33.20;18.60;;;0.70;99.90;;;;;;5089381;28;20151;-80
2020/12/11 05:07:38;;;;;;;28.35;17.85;;;0.70;99.90;;;;;;5073636;28;20036;-81
2020/12/11 05:10:05;;;;;;;25.50;17.27;;;0.70;99.90;;;;;;5089315;28;20115;-81
2020/12/11 05:12:32;;;;;;;27.00;18.38;;;0.70;99.90;;;;;;5089079;28;20028;-80
2020/12/11 05:14:59;;;;;;;29.38;18.63;;;0.90;99.90;;;;;;5089203;28;20438;-80
2020/12/11 05:17:27;;;;;;;28.17;17.30;;;1.00;99.90;;;;;;5089034;28;20032;-80
2020/12/11 05:19:54;;;;;;;26.92;17.73;;;1.10;99.90;;;;;;5089020;28;20024;-80
2020/12/11 05:22:21;;;;;;;27.35;17.45;;;1.10;99.90;;;;;;5088915;28;20032;-80
2020/12/11 05:24:52;;;;;;;28.35;17.90;;;1.10;99.90;;;;;;5088768;28;20106;-81
2020/12/11 05:27:34;;;;;;;29.13;18.70;;;1.10;99.90;;;;;;5073443;28;20100;-81
2020/12/11 05:30:21;;;;;;;27.70;17.73;;;1.00;99.90;;;;;;5072050;28;20020;-81
2020/12/11 05:32:55;;;;;;;29.30;17.52;;;1.00;99.90;;;;;;5073161;28;20033;-80
2020/12/11 05:35:25;;;;;;;28.35;17.42;;;1.00;99.90;;;;;;5089127;28;20031;-80
2020/12/11 05:38:09;;;;;;;27.55;17.30;;;0.80;99.90;;;;;;5073820;28;20017;-80
2020/12/11 05:40:42;;;;;;;30.42;18.08;;;0.90;99.90;;;;;;5088707;28;20036;-80
2020/12/11 05:43:18;;;;;;;30.27;18.00;;;0.90;99.90;;;;;;5071873;28;20029;-80
2020/12/11 05:45:48;;;;;;;27.85;17.48;;;0.70;99.90;;;;;;5088643;28;20021;-80
2020/12/11 05:48:13;;;;;;;29.45;18.27;;;0.80;99.90;;;;;;5073099;28;20472;-80
2020/12/11 05:50:39;;;;;;;30.83;18.83;;;0.70;99.90;;;;;;5073237;28;20013;-80
2020/12/11 05:53:05;;;;;;;32.33;19.92;;;0.40;99.90;;;;;;5071742;28;20024;-80
2020/12/11 05:55:30;;;;;;;32.90;18.92;;;0.30;99.90;;;;;;5088733;28;20025;-80
2020/12/11 05:57:58;;;;;;;30.75;18.88;;;0.20;99.90;;;;;;5071714;28;20033;-80
2020/12/11 06:00:24;;;;;;;31.05;19.05;;;0.40;99.90;;;;;;5088732;28;20025;-79
2020/12/11 06:02:51;;;;;;;28.40;18.65;;;0.50;99.90;;;;;;5071645;28;20025;-80
2020/12/11 06:05:19;;;;;;;29.75;19.27;;;0.60;99.90;;;;;;5072259;28;20024;-80
2020/12/11 06:07:46;;;;;;;29.35;18.70;;;0.60;99.90;;;;;;5092827;28;20056;-80
2020/12/11 06:10:21;;;;;;;26.13;17.48;;;0.70;99.90;;;;;;5075555;28;20024;-81
2020/12/11 06:12:48;;;;;;;32.28;18.27;;;0.50;99.90;;;;;;5077039;28;20067;-80
2020/12/11 06:15:22;;;;;;;29.25;19.13;;;0.30;99.90;;;;;;5076435;28;20025;-80
2020/12/11 06:18:14;;;;;;;28.70;18.88;;;0.40;99.90;;;;;;5076598;28;20027;-81
2020/12/11 06:20:40;;;;;;;32.13;19.42;;;0.60;99.90;;;;;;5078876;28;20380;-81
2020/12/11 06:23:22;;;;;;;32.65;19.70;;;0.60;99.90;;;;;;5076651;28;20086;-81
2020/12/11 06:25:56;;;;;;;31.85;19.63;;;0.60;99.90;;;;;;5077971;28;20410;-81
2020/12/11 06:28:49;;;;;;;31.20;19.52;;;0.60;99.90;;;;;;5093401;28;20021;-81
2020/12/11 06:31:17;;;;;;;31.92;20.02;;;0.50;99.90;;;;;;5092887;28;20078;-81
2020/12/11 06:33:45;;;;;;;35.50;20.25;;;0.20;99.90;;;;;;5093263;28;20543;-81
2020/12/11 06:36:12;;;;;;;29.55;17.92;;;0.30;99.90;;;;;;5092759;28;20016;-81
2020/12/11 06:38:56;;;;;;;31.00;19.20;;;0.30;99.90;;;;;;5077683;28;20073;-81
2020/12/11 06:41:28;;;;;;;;;;;0.50;99.90;;;;;;5092550;28;20021;-81
2020/12/11 06:43:57;;;;;;;28.58;17.80;;;0.50;99.90;;;;;;5076595;28;20279;-81
2020/12/11 06:46:25;;;;;;;30.00;18.50;;;0.70;99.90;;;;;;5092351;28;20488;-81
2020/12/11 06:49:22;;;;;;;29.35;18.60;;;0.60;99.90;;;;;;5074923;28;20437;-80
2020/12/11 06:51:47;;;;;;;28.73;18.50;;;0.50;99.90;;;;;;5076045;28;20024;-79
2020/12/11 06:54:22;;;;;;;31.50;19.17;;;0.50;99.90;;;;;;5077141;28;20353;-82
2020/12/11 06:56:53;;;;;;;29.25;19.75;;;0.50;99.90;;;;;;5075336;28;20046;-81
2020/12/11 06:59:24;;;;;;;30.60;20.45;;;0.50;99.90;;;;;;5092631;28;20024;-81
2020/12/11 07:01:53;;;;;;;30.17;19.17;;;0.60;99.90;;;;;;5075589;28;20025;-81
2020/12/11 07:04:19;;;;;;;30.42;19.00;;;0.50;99.90;;;;;;5075101;28;20031;-81
2020/12/11 07:06:53;;;;;;;31.92;20.63;;;0.60;99.90;;;;;;5093099;28;20383;-81
2020/12/11 07:09:20;;;;;;;28.30;19.13;;;0.70;99.90;;;;;;5077347;28;20020;-80
2020/12/11 07:11:47;;;;;;;29.75;18.90;;;0.50;99.90;;;;;;5078265;28;20046;-80
2020/12/11 07:14:14;;;;;;;30.52;18.05;;;0.50;99.90;;;;;;5093671;28;20021;-81
2020/12/11 07:16:41;;;;;;;28.75;19.15;;;0.40;99.90;;;;;;5077896;28;20031;-81
2020/12/11 07:19:07;;;;;;;30.33;18.98;;;0.40;99.90;;;;;;5094587;28;20506;-81
2020/12/11 07:21:33;;;;;;;30.17;18.08;;;0.40;99.90;;;;;;5077364;28;20079;-81
2020/12/11 07:24:04;;;;;;;28.92;18.45;;;0.70;99.90;;;;;;5092446;28;20051;-81
2020/12/11 07:26:30;;;;;;;25.33;17.42;;;0.70;99.90;;;;;;5093534;28;20020;-81
2020/12/11 07:29:09;;;;;;;30.48;18.98;;;0.70;99.90;;;;;;5077996;28;20017;-81
2020/12/11 07:31:43;;;;;;;28.75;18.95;;;0.70;99.90;;;;;;5076725;28;20020;-81
2020/12/11 07:34:26;;;;;;;30.30;18.30;;;0.50;99.90;;;;;;5077682;28;20099;-83
2020/12/11 07:36:56;;;;;;;27.42;17.25;;;0.50;99.90;;;;;;5092587;28;20088;-81
2020/12/11 07:39:27;;;;;;;28.63;17.85;;;0.50;99.90;;;;;;5077288;28;20074;-80
2020/12/11 07:41:54;;;;;;;25.65;17.10;;;0.50;99.90;;;;;;5092800;28;20021;-81
2020/12/11 07:44:28;;;;;;;28.77;19.10;;;0.70;99.90;;;;;;5078201;28;20028;-81
2020/12/11 07:46:56;;;;;;;28.30;19.05;;;0.80;99.90;;;;;;5094555;28;20035;-82
2020/12/11 07:49:43;;;;;;;28.88;18.15;;;0.80;99.90;;;;;;5094234;28;20028;-82
2020/12/11 07:52:10;;;;;;;26.55;17.50;;;0.90;99.90;;;;;;5093510;28;20024;-82
2020/12/11 07:54:39;;;;;;;27.35;17.80;;;0.70;99.90;;;;;;5096416;28;20111;-81
2020/12/11 07:57:12;;;;;;;25.85;17.65;;;0.90;99.90;;;;;;5082447;28;20033;-81
2020/12/11 07:59:39;;;;;;;26.38;17.73;;;1.00;99.90;;;;;;5103371;28;20025;-81
2020/12/11 08:02:05;;;;;;;25.90;17.48;;;1.20;99.90;;;;;;5101039;28;20028;-82
2020/12/11 08:04:35;;;;;;;25.13;17.05;;;1.40;99.90;;;;;;5082219;28;20044;-82
2020/12/11 08:07:02;;;;;;;27.55;19.23;;;1.70;99.90;;;;;;5081334;28;20016;-82
2020/12/11 08:09:34;;;;;;;24.38;15.70;;;2.10;99.90;;;;;;5101839;28;20095;-82
2020/12/11 08:12:15;;;;;;;26.35;16.48;;;2.20;99.90;;;;;;5087275;28;20028;-82
2020/12/11 08:14:41;;;;;;;24.85;16.35;;;2.40;99.90;;;;;;5085636;28;20028;-82
2020/12/11 08:17:09;;;;;;;22.67;14.77;;;2.40;99.90;;;;;;5089251;28;20052;-82
2020/12/11 08:19:35;;;;;;;26.67;16.83;;;2.60;99.90;;;;;;5102904;28;20047;-81
2020/12/11 08:22:33;;;;;;;29.88;16.77;;;2.50;99.90;;;;;;5077332;28;20036;-83
2020/12/11 08:25:00;;;;;;;23.17;16.58;;;2.40;99.90;;;;;;5073503;28;20044;-83
2020/12/11 08:27:28;;;;;;;22.55;16.58;;;2.60;99.90;;;;;;5082720;28;20016;-84
2020/12/11 08:30:13;;;;;;;24.88;17.10;;;2.70;99.90;;;;;;5098061;28;20479;-84
2020/12/11 08:32:39;;;;;;;23.73;15.77;;;2.70;99.90;;;;;;5083790;28;20031;-84
2020/12/11 08:35:22;;;;;;;24.85;16.25;;;2.70;99.90;;;;;;5101494;28;20012;-84
2020/12/11 08:37:58;;;;;;;23.05;15.98;;;2.50;99.90;;;;;;5101982;28;20040;-84
2020/12/11 08:40:26;;;;;;;22.42;15.57;;;2.50;99.90;;;;;;5100072;28;20052;-84
2020/12/11 08:49:19;;;;;;;21.60;14.95;;;2.00;99.90;;;;;;5083978;28;20031;-83
2020/12/11 08:51:45;;;;;;;22.17;15.18;;;2.00;99.90;;;;;;5098013;28;20395;-85
2020/12/11 08:54:10;;;;;;;24.17;15.82;;;2.10;99.90;;;;;;5079009;28;20032;-83
2020/12/11 08:56:42;;;;;;;21.42;16.15;;;2.10;99.90;;;;;;5080369;28;20024;-83
2020/12/11 08:59:07;;;;;;;21.35;14.27;;;2.20;99.90;;;;;;5077726;28;20027;-83
2020/12/11 09:01:33;;;;;;;24.48;17.38;;;2.40;99.90;;;;;;5076015;28;20036;-83
2020/12/11 09:03:59;;;;;;;24.30;16.80;;;2.50;99.90;;;;;;5079822;28;20089;-84
2020/12/11 09:06:25;;;;;;;26.20;16.23;;;2.50;99.90;;;;;;5077509;28;20455;-85
2020/12/11 09:08:50;;;;;;;23.92;15.48;;;2.80;99.90;;;;;;5076866;28;20082;-85
2020/12/11 09:11:16;;;;;;;21.02;14.48;;;3.20;99.90;;;;;;5075075;28;20021;-83
2020/12/11 09:13:42;;;;;;;22.15;14.90;;;3.50;99.90;;;;;;5093484;28;20025;-84
2020/12/11 09:16:07;;;;;;;24.13;16.30;;;3.80;99.90;;;;;;5076752;28;20071;-84
2020/12/11 09:18:33;;;;;;;22.08;14.98;;;3.60;99.90;;;;;;5099453;28;20032;-84
2020/12/11 09:20:59;;;;;;;21.65;16.25;;;3.30;99.90;;;;;;5087598;28;20020;-83
2020/12/11 09:23:24;;;;;;;21.40;15.07;;;3.00;99.90;;;;;;5087902;28;20070;-84
2020/12/11 09:25:51;;;;;;;23.60;16.38;;;3.10;99.90;;;;;;5098920;28;20476;-84
2020/12/11 09:28:19;;;;;;;23.73;15.77;;;3.00;99.90;;;;;;5081504;28;20040;-84
2020/12/11 09:30:46;;;;;;;20.30;14.57;;;3.10;99.90;;;;;;5100668;28;20028;-84
2020/12/11 09:33:16;;;;;;;34.95;22.10;;;3.00;99.90;;;;;;5082458;28;20041;-84
2020/12/11 09:35:42;;;;;;;24.20;15.88;;;2.80;99.90;;;;;;5083438;28;20024;-83
2020/12/11 09:38:08;;;;;;;21.10;15.23;;;2.90;99.90;;;;;;5082767;28;20028;-83
2020/12/11 09:40:43;;;;;;;25.58;16.63;;;2.60;99.90;;;;;;5081088;28;20031;-84
2020/12/11 09:56:55;;;;;;;32.90;19.88;;;3.00;99.90;;;;;;5079119;28;20024;-82
2020/12/11 09:59:35;;;;;;;28.55;19.33;;;3.00;99.90;;;;;;5095568;28;20503;-83
2020/12/11 10:04:29;;;;;;;21.10;15.35;;;2.70;99.90;;;;;;5077599;28;20016;-82
2020/12/11 10:06:55;;;;;;;25.30;17.35;;;2.80;99.90;;;;;;5076302;28;20024;-82
2020/12/11 10:12:26;;;;;;;26.60;15.88;;;2.40;99.90;;;;;;5080372;28;20040;-82
2020/12/11 10:14:58;;;;;;;24.30;15.80;;;2.30;99.90;;;;;;5094832;28;20024;-83
2020/12/11 10:17:24;;;;;;;22.77;15.85;;;2.50;99.90;;;;;;5089919;28;20025;-83
2020/12/11 10:19:50;;;;;;;24.33;16.17;;;2.60;99.90;;;;;;5080010;28;20111;-83
2020/12/11 10:22:15;;;;;;;27.27;17.02;;;2.30;99.90;;;;;;5081203;28;20056;-83
2020/12/11 10:24:41;;;;;;;25.75;15.95;;;2.40;99.90;;;;;;5079709;28;20037;-82
2020/12/11 10:27:07;;;;;;;24.33;15.82;;;2.60;99.90;;;;;;5094579;28;20031;-82
2020/12/11 10:29:33;;;;;;;23.05;16.17;;;2.80;99.90;;;;;;5093949;28;20063;-82
2020/12/11 10:31:59;;;;;;;25.38;15.88;;;2.90;99.90;;;;;;5075780;28;20032;-82
2020/12/11 10:34:24;;;;;;;25.58;17.75;;;2.90;99.90;;;;;;5076656;28;20028;-82
2020/12/11 10:36:50;;;;;;;23.63;16.38;;;2.70;99.90;;;;;;5076724;28;20032;-82
2020/12/11 10:39:16;;;;;;;23.50;15.55;;;2.90;99.90;;;;;;5075907;28;20433;-82
2020/12/11 10:41:42;;;;;;;25.13;15.68;;;3.00;99.90;;;;;;5091978;28;20123;-82
2020/12/11 10:44:09;;;;;;;24.80;17.23;;;3.30;99.90;;;;;;5076418;28;20082;-82
2020/12/11 10:46:35;;;;;;;23.00;16.13;;;3.50;99.90;;;;;;5075911;28;20349;-82
2020/12/11 10:49:01;;;;;;;22.10;15.27;;;3.60;99.90;;;;;;5074573;28;20023;-82
2020/12/11 10:51:27;;;;;;;21.30;15.52;;;3.80;99.90;;;;;;5090828;28;20024;-82
2020/12/11 10:53:52;;;;;;;23.02;14.73;;;4.20;99.90;;;;;;5075767;28;20017;-82
2020/12/11 10:56:19;;;;;;;21.42;15.43;;;4.00;99.90;;;;;;5075573;28;20476;-82
2020/12/11 10:58:46;;;;;;;23.80;16.63;;;4.00;99.90;;;;;;5076200;28;20078;-82
2020/12/11 11:01:11;;;;;;;22.30;14.63;;;3.90;99.90;;;;;;5091346;28;20027;-81
2020/12/11 11:03:38;;;;;;;26.52;15.60;;;3.80;99.90;;;;;;5091363;28;20434;-82
2020/12/11 11:11:05;;;;;;;23.80;16.33;;;3.80;99.90;;;;;;5075781;28;20017;-81
2020/12/11 11:13:57;;;;;;;24.85;17.42;;;3.70;99.90;;;;;;5075213;28;20063;-80
2020/12/11 11:19:38;;;;;;;19.98;13.95;;;3.40;99.90;;;;;;5075821;28;20494;-81
2020/12/11 11:30:01;;;;;;;20.60;15.25;;;4.40;99.90;;;;;;5075040;28;20025;-81
2020/12/11 11:32:27;;;;;;;23.95;16.77;;;4.60;99.90;;;;;;5074982;28;20491;-81
2020/12/11 11:34:53;;;;;;;26.27;16.35;;;4.80;99.90;;;;;;5075184;28;20039;-81
2020/12/11 11:37:21;;;;;;;22.27;14.02;;;4.90;99.90;;;;;;5075339;28;20031;-79
2020/12/11 11:39:48;;;;;;;18.05;12.10;;;5.20;99.90;;;;;;5075200;28;20024;-81
2020/12/11 11:42:13;;;;;;;19.70;12.65;;;5.70;99.90;;;;;;5073655;28;20558;-80
2020/12/11 11:45:26;;;;;;;19.83;13.70;;;6.30;99.90;;;;;;5073335;28;20020;-80
2020/12/11 11:47:25;;;;;;;19.50;12.98;;;7.00;99.90;;;;;;5067119;28;20036;-81
2020/12/11 11:52:46;;;;;;;23.88;14.20;;;7.20;99.90;;;;;;5058662;28;20032;-80
2020/12/11 11:55:13;;;;;;;21.02;13.88;;;6.90;99.90;;;;;;5073160;28;20024;-80
2020/12/11 11:57:42;;;;;;;22.83;14.43;;;6.90;99.90;;;;;;5073124;28;20024;-79
2020/12/11 12:00:10;;;;;;;21.05;14.63;;;6.30;99.90;;;;;;5073056;28;20032;-81
2020/12/11 12:02:36;;;;;;;20.65;14.07;;;5.80;99.90;;;;;;5089514;28;20115;-79
2020/12/11 12:05:02;;;;;;;35.85;21.52;;;5.30;99.90;;;;;;5073949;28;20024;-80
2020/12/11 12:07:28;;;;;;;44.03;22.75;;;5.00;99.90;;;;;;5074299;28;20066;-79
2020/12/11 12:09:55;;;;;;;97.25;42.70;;;4.50;99.90;;;;;;5074196;28;20465;-80
2020/12/11 12:12:21;;;;;;;54.33;26.17;;;4.40;99.90;;;;;;5072885;28;20036;-79
2020/12/11 12:14:49;;;;;;;64.82;32.03;;;4.60;99.90;;;;;;5074090;28;20507;-80
2020/12/11 12:17:17;;;;;;;24.30;15.38;;;4.90;99.90;;;;;;5074292;28;20598;-79
2020/12/11 12:19:46;;;;;;;25.40;16.00;;;5.40;99.90;;;;;;5074056;28;20541;-80
2020/12/11 12:30:00;;;;;;;23.77;14.40;;;5.70;99.90;;;;;;5074262;28;20028;-80
2020/12/11 12:32:29;;;;;;;29.38;19.77;;;5.40;99.90;;;;;;5089562;28;20429;-79
2020/12/11 12:37:36;;;;;;;27.58;15.77;;;4.50;99.90;;;;;;5074056;28;20020;-79
2020/12/11 12:45:16;;;;;;;25.02;15.75;;;4.60;99.90;;;;;;5052325;28;20032;-80
2020/12/11 12:47:42;;;;;;;24.08;16.73;;;4.50;99.90;;;;;;5072289;28;20085;-81
2020/12/11 12:50:09;;;;;;;21.33;13.82;;;4.30;99.90;;;;;;5074185;28;20103;-80
2020/12/11 12:52:36;;;;;;;25.70;15.82;;;4.30;99.90;;;;;;5072404;28;20492;-80
2020/12/11 12:55:03;;;;;;;23.08;14.98;;;4.20;99.90;;;;;;5073613;28;20024;-79
2020/12/11 12:57:53;;;;;;;23.15;14.48;;;4.00;99.90;;;;;;5072294;28;20095;-75
2020/12/11 13:03:16;;;;;;;24.83;17.95;;;3.70;99.90;;;;;;5073698;28;20036;-80
2020/12/11 13:05:39;;;;;;;28.63;15.95;;;3.50;99.90;;;;;;5073340;28;20021;-80
2020/12/11 13:08:04;;;;;;;19.88;13.70;;;3.50;99.90;;;;;;5073746;28;20024;-80
2020/12/11 13:10:32;;;;;;;21.35;14.05;;;3.40;99.90;;;;;;5072129;28;20025;-80
2020/12/11 13:12:57;;;;;;;22.48;13.90;;;3.40;99.90;;;;;;5073392;28;20040;-80
2020/12/11 13:15:23;;;;;;;21.88;15.45;;;3.50;99.90;;;;;;5075789;28;20024;-80
2020/12/11 13:17:49;;;;;;;23.25;13.52;;;3.50;99.90;;;;;;5077577;28;20028;-80
2020/12/11 13:20:23;;;;;;;23.90;14.75;;;3.40;99.90;;;;;;5077522;28;20430;-80
2020/12/11 13:25:22;;;;;;;20.30;13.30;;;3.50;99.90;;;;;;5077740;28;20108;-80
2020/12/11 13:28:14;;;;;;;24.35;15.15;;;3.40;99.90;;;;;;5077961;28;20060;-80
2020/12/11 13:30:40;;;;;;;28.05;17.38;;;3.50;99.90;;;;;;5077547;28;20020;-80
2020/12/11 13:33:06;;;;;;;20.10;13.15;;;3.50;99.90;;;;;;5077518;28;20070;-80
2020/12/11 13:35:31;;;;;;;23.75;15.85;;;3.60;99.90;;;;;;5075928;28;20028;-80
2020/12/11 13:37:57;;;;;;;20.92;13.68;;;3.60;99.90;;;;;;5075897;28;20464;-80
2020/12/11 13:40:23;;;;;;;24.23;14.23;;;3.70;99.90;;;;;;5075819;28;20041;-79
2020/12/11 13:42:48;;;;;;;20.10;12.40;;;3.70;99.90;;;;;;5075653;28;20063;-80
2020/12/11 13:45:15;;;;;;;18.60;12.75;;;3.80;99.90;;;;;;5077252;28;20021;-80
2020/12/11 13:47:41;;;;;;;20.40;12.88;;;3.70;99.90;;;;;;5076855;28;20012;-79
2020/12/11 13:50:07;;;;;;;18.75;13.40;;;3.70;99.90;;;;;;5076455;28;20165;-80